City Ranch, California
Current Conditions -  °F | °C
As of 4:53 AM on Saturday 25 Oct 2014 (Local Time) from KPMD Reporting Station
Clear Clear  
Wind Chill: 66°   Ceiling: Unl
Heat Index: 66°   Visibility: 10mi
Dew Point: 37°   Wind: 0mph
Humidity: 34%   Direction: NA
Pressure: 30.05"   Gusts: NA
Location:  34.5959°N, 118.235°W
Report Text: KPMD 251153Z AUTO 00000KT 10SM CLR 19/03 A3005 RMK AO2 SLP148 T01890028 10222 20178 55007
Loading
Personal Weather Stations






























Interactive Weather Map
Tropical Storm Tracking
New forecast layout! Learn more

10-Day Weather Forecast

Advertisements
Track Severe Weather on mobile